Time,TemperatureF,DewpointF,PressureIn,WindDirection,WindDirectionDegrees,WindSpeedMPH,WindSpeedGustMPH,Humidity,HourlyPrecipIn,Conditions,Clouds,dailyrainin,SolarRadiationWatts/m^2,SoftwareType,DateUTC
2013-01-24 00:02:00,47.0,45.0,-100.00,SW,214,1.0,4.0,92,0.00,,,0.00,0.000000,,2013-01-24 06:02:00,
2013-01-24 00:12:00,47.0,45.0,-100.00,SW,214,1.0,4.0,92,0.00,,,0.00,0.000000,,2013-01-24 06:12:00,
2013-01-24 00:22:00,47.0,45.0,-100.00,SW,214,1.0,4.0,92,0.00,,,0.00,0.000000,,2013-01-24 06:22:00,
2013-01-24 00:52:00,45.0,44.0,-100.00,NNW,346,0.0,2.0,95,0.00,,,0.00,0.000000,,2013-01-24 06:52:00,
2013-01-24 01:03:00,45.0,44.0,-100.00,NNW,346,0.0,2.0,95,0.00,,,0.00,0.000000,,2013-01-24 07:03:00,
2013-01-24 01:12:00,45.0,44.0,-100.00,NNW,346,0.0,2.0,95,0.00,,,0.00,0.000000,,2013-01-24 07:12:00,
2013-01-24 01:22:00,45.0,44.0,-100.00,NNW,346,0.0,2.0,95,0.00,,,0.00,0.000000,,2013-01-24 07:22:00,
2013-01-24 01:53:00,43.0,42.0,-100.00,NNW,347,0.0,2.0,95,0.00,,,0.00,0.000000,,2013-01-24 07:53:00,
2013-01-24 02:02:00,43.0,42.0,-100.00,NNW,347,0.0,2.0,95,0.00,,,0.00,0.000000,,2013-01-24 08:02:00,
2013-01-24 02:12:00,43.0,42.0,-100.00,NNW,347,0.0,2.0,95,0.00,,,0.00,0.000000,,2013-01-24 08:12:00,
2013-01-24 02:22:00,43.0,42.0,-100.00,NNW,347,0.0,2.0,95,0.00,,,0.00,0.000000,,2013-01-24 08:22:00,
2013-01-24 02:53:00,42.0,41.0,-100.00,SSE,167,0.0,2.0,96,0.00,,,0.00,0.000000,,2013-01-24 08:53:00,
2013-01-24 03:03:00,42.0,41.0,-100.00,SSE,167,0.0,2.0,96,0.00,,,0.00,0.000000,,2013-01-24 09:03:00,
2013-01-24 03:13:00,42.0,41.0,-100.00,SSE,167,0.0,2.0,96,0.00,,,0.00,0.000000,,2013-01-24 09:13:00,
2013-01-24 03:22:00,42.0,41.0,-100.00,SSE,167,0.0,2.0,96,0.00,,,0.00,0.000000,,2013-01-24 09:22:00,
2013-01-24 03:53:00,41.0,40.0,-100.00,North,1,0.0,2.0,96,0.00,,,0.00,0.000000,,2013-01-24 09:53:00,
2013-01-24 04:03:00,41.0,40.0,-100.00,North,1,0.0,2.0,96,0.00,,,0.00,0.000000,,2013-01-24 10:03:00,
2013-01-24 04:12:00,41.0,40.0,-100.00,North,1,0.0,2.0,96,0.00,,,0.00,0.000000,,2013-01-24 10:12:00,
2013-01-24 04:22:00,41.0,40.0,-100.00,North,1,0.0,2.0,96,0.00,,,0.00,0.000000,,2013-01-24 10:22:00,
2013-01-24 04:53:00,40.0,39.0,-100.00,North,11,0.0,1.0,97,0.00,,,0.00,0.000000,,2013-01-24 10:53:00,
2013-01-24 05:03:00,40.0,39.0,-100.00,North,11,0.0,1.0,97,0.00,,,0.00,0.000000,,2013-01-24 11:03:00,
2013-01-24 05:12:00,40.0,39.0,-100.00,North,11,0.0,1.0,97,0.00,,,0.00,0.000000,,2013-01-24 11:12:00,
2013-01-24 05:23:00,40.0,39.0,-100.00,North,11,0.0,1.0,97,0.00,,,0.00,0.000000,,2013-01-24 11:23:00,
2013-01-24 05:53:00,39.0,38.0,-100.00,ENE,57,0.0,0.0,97,0.00,,,0.00,0.000000,,2013-01-24 11:53:00,
2013-01-24 06:03:00,39.0,38.0,-100.00,ENE,57,0.0,0.0,97,0.00,,,0.00,0.000000,,2013-01-24 12:03:00,
2013-01-24 06:12:00,39.0,38.0,-100.00,ENE,57,0.0,0.0,97,0.00,,,0.00,0.000000,,2013-01-24 12:12:00,
2013-01-24 06:22:00,39.0,38.0,-100.00,ENE,57,0.0,0.0,97,0.00,,,0.00,0.000000,,2013-01-24 12:22:00,
2013-01-24 06:53:00,39.0,38.0,-100.00,NNE,13,0.0,2.0,97,0.00,,,0.00,0.000000,,2013-01-24 12:53:00,
2013-01-24 07:03:00,39.0,38.0,-100.00,NNE,13,0.0,2.0,97,0.00,,,0.00,0.000000,,2013-01-24 13:03:00,
2013-01-24 07:13:00,39.0,38.0,-100.00,NNE,13,0.0,2.0,97,0.00,,,0.00,0.000000,,2013-01-24 13:13:00,
2013-01-24 07:22:00,39.0,38.0,-100.00,NNE,13,0.0,2.0,97,0.00,,,0.00,0.000000,,2013-01-24 13:22:00,
2013-01-24 07:53:00,39.0,38.0,-100.00,NE,36,0.0,0.0,97,0.00,,,0.00,15.000000,,2013-01-24 13:53:00,
2013-01-24 08:03:00,39.0,38.0,-100.00,NE,36,0.0,0.0,97,0.00,,,0.00,15.000000,,2013-01-24 14:03:00,
2013-01-24 08:12:00,39.0,38.0,-100.00,NE,36,0.0,0.0,97,0.00,,,0.00,15.000000,,2013-01-24 14:12:00,
2013-01-24 08:23:00,39.0,38.0,-100.00,NE,36,0.0,0.0,97,0.00,,,0.00,15.000000,,2013-01-24 14:23:00,
2013-01-24 08:54:00,53.0,52.0,-100.00,ESE,110,0.0,0.0,96,0.00,,,0.00,177.000000,,2013-01-24 14:54:00,
2013-01-24 09:03:00,53.0,52.0,-100.00,ESE,110,0.0,0.0,96,0.00,,,0.00,177.000000,,2013-01-24 15:03:00,
2013-01-24 09:12:00,53.0,52.0,-100.00,ESE,110,0.0,0.0,96,0.00,,,0.00,177.000000,,2013-01-24 15:12:00,
2013-01-24 09:23:00,53.0,52.0,-100.00,ESE,110,0.0,0.0,96,0.00,,,0.00,177.000000,,2013-01-24 15:23:00,
2013-01-24 09:53:00,65.0,55.0,-100.00,SW,236,4.0,6.0,71,0.00,,,0.00,409.000000,,2013-01-24 15:53:00,
2013-01-24 10:03:00,65.0,55.0,-100.00,SW,236,4.0,6.0,71,0.00,,,0.00,409.000000,,2013-01-24 16:03:00,
2013-01-24 10:12:00,65.0,55.0,-100.00,SW,236,4.0,6.0,71,0.00,,,0.00,409.000000,,2013-01-24 16:12:00,
2013-01-24 10:22:00,65.0,55.0,-100.00,SW,236,4.0,6.0,71,0.00,,,0.00,409.000000,,2013-01-24 16:22:00,
2013-01-24 11:02:00,66.0,53.0,-100.00,WSW,257,5.0,12.0,62,0.00,,,0.00,482.000000,,2013-01-24 17:02:00,
2013-01-24 11:12:00,66.0,53.0,-100.00,WSW,257,5.0,12.0,62,0.00,,,0.00,482.000000,,2013-01-24 17:12:00,
2013-01-24 11:21:00,66.0,53.0,-100.00,WSW,257,5.0,12.0,62,0.00,,,0.00,482.000000,,2013-01-24 17:21:00,
2013-01-24 11:52:00,70.0,53.0,-100.00,WSW,238,7.0,12.0,55,0.00,,,0.00,681.000000,,2013-01-24 17:52:00,
2013-01-24 12:02:00,70.0,53.0,-100.00,WSW,238,7.0,12.0,55,0.00,,,0.00,681.000000,,2013-01-24 18:02:00,
2013-01-24 12:12:00,70.0,53.0,-100.00,WSW,238,7.0,12.0,55,0.00,,,0.00,681.000000,,2013-01-24 18:12:00,
2013-01-24 12:22:00,70.0,53.0,-100.00,WSW,238,7.0,12.0,55,0.00,,,0.00,681.000000,,2013-01-24 18:22:00,
2013-01-24 12:53:00,71.0,53.0,-100.00,SW,230,7.0,14.0,53,0.00,,,0.00,767.000000,,2013-01-24 18:53:00,
2013-01-24 13:02:00,71.0,53.0,-100.00,SW,230,7.0,14.0,53,0.00,,,0.00,767.000000,,2013-01-24 19:02:00,
2013-01-24 13:12:00,71.0,53.0,-100.00,SW,230,7.0,14.0,53,0.00,,,0.00,767.000000,,2013-01-24 19:12:00,
2013-01-24 13:22:00,71.0,53.0,-100.00,SW,230,7.0,14.0,53,0.00,,,0.00,767.000000,,2013-01-24 19:22:00,
2013-01-24 13:53:00,71.0,53.0,-100.00,WSW,249,6.0,15.0,53,0.00,,,0.00,740.000000,,2013-01-24 19:53:00,
2013-01-24 14:02:00,71.0,53.0,-100.00,WSW,249,6.0,15.0,53,0.00,,,0.00,740.000000,,2013-01-24 20:02:00,
2013-01-24 14:11:00,71.0,53.0,-100.00,WSW,249,6.0,15.0,53,0.00,,,0.00,740.000000,,2013-01-24 20:11:00,
2013-01-24 14:22:00,71.0,53.0,-100.00,WSW,249,6.0,15.0,53,0.00,,,0.00,740.000000,,2013-01-24 20:22:00,
2013-01-24 14:52:00,72.0,55.0,-100.00,SSW,196,6.0,12.0,56,0.00,,,-99.99,631.000000,,2013-01-24 20:52:00,
2013-01-24 15:02:00,72.0,55.0,-100.00,SSW,196,6.0,12.0,56,0.00,,,-99.99,631.000000,,2013-01-24 21:02:00,
2013-01-24 15:12:00,72.0,55.0,-100.00,SSW,196,6.0,12.0,56,0.00,,,-99.99,631.000000,,2013-01-24 21:12:00,
2013-01-24 15:22:00,72.0,55.0,-100.00,SSW,196,6.0,12.0,56,0.00,,,-99.99,631.000000,,2013-01-24 21:22:00,
2013-01-24 15:53:00,70.0,54.0,-100.00,SW,214,5.0,11.0,56,0.00,,,0.00,468.000000,,2013-01-24 21:53:00,
2013-01-24 16:03:00,70.0,54.0,-100.00,SW,214,5.0,11.0,56,0.00,,,0.00,468.000000,,2013-01-24 22:03:00,
2013-01-24 16:12:00,70.0,54.0,-100.00,SW,214,5.0,11.0,56,0.00,,,0.00,468.000000,,2013-01-24 22:12:00,
2013-01-24 16:22:00,70.0,54.0,-100.00,SW,214,5.0,11.0,56,0.00,,,0.00,468.000000,,2013-01-24 22:22:00,
2013-01-24 16:53:00,66.0,54.0,-100.00,SSW,212,4.0,12.0,66,0.00,,,0.00,215.000000,,2013-01-24 22:53:00,
2013-01-24 17:02:00,66.0,54.0,-100.00,SSW,212,4.0,12.0,66,0.00,,,0.00,215.000000,,2013-01-24 23:02:00,
2013-01-24 17:12:00,66.0,54.0,-100.00,SSW,212,4.0,12.0,66,0.00,,,0.00,215.000000,,2013-01-24 23:12:00,
2013-01-24 17:22:00,66.0,54.0,-100.00,SSW,212,4.0,12.0,66,0.00,,,0.00,215.000000,,2013-01-24 23:22:00,
2013-01-24 17:52:00,62.0,54.0,-100.00,SW,218,2.0,9.0,76,0.00,,,0.00,48.000000,,2013-01-24 23:52:00,
2013-01-24 18:02:00,62.0,54.0,-100.00,SW,218,2.0,9.0,76,0.00,,,0.00,48.000000,,2013-01-25 00:02:00,
2013-01-24 18:12:00,62.0,54.0,-100.00,SW,218,2.0,9.0,76,0.00,,,0.00,48.000000,,2013-01-25 00:12:00,
2013-01-24 18:22:00,62.0,54.0,-100.00,SW,218,2.0,9.0,76,0.00,,,0.00,48.000000,,2013-01-25 00:22:00,
2013-01-24 18:53:00,58.0,54.0,-100.00,SSW,211,0.0,4.0,85,0.00,,,0.00,0.000000,,2013-01-25 00:53:00,
2013-01-24 19:02:00,58.0,54.0,-100.00,SSW,211,0.0,4.0,85,0.00,,,0.00,0.000000,,2013-01-25 01:02:00,
2013-01-24 19:12:00,58.0,54.0,-100.00,SSW,211,0.0,4.0,85,0.00,,,0.00,0.000000,,2013-01-25 01:12:00,
2013-01-24 19:22:00,58.0,54.0,-100.00,SSW,211,0.0,4.0,85,0.00,,,0.00,0.000000,,2013-01-25 01:22:00,
2013-01-24 19:52:00,59.0,54.0,-100.00,SSE,155,0.0,5.0,85,0.00,,,0.00,0.000000,,2013-01-25 01:52:00,
2013-01-24 20:02:00,59.0,54.0,-100.00,SSE,155,0.0,5.0,85,0.00,,,0.00,0.000000,,2013-01-25 02:02:00,
2013-01-24 20:11:00,59.0,54.0,-100.00,SSE,155,0.0,5.0,85,0.00,,,0.00,0.000000,,2013-01-25 02:11:00,
2013-01-24 20:22:00,59.0,54.0,-100.00,SSE,155,0.0,5.0,85,0.00,,,0.00,0.000000,,2013-01-25 02:22:00,
2013-01-24 20:53:00,59.0,54.0,-100.00,SSW,194,2.0,5.0,85,0.00,,,0.00,0.000000,,2013-01-25 02:53:00,
2013-01-24 21:02:00,59.0,54.0,-100.00,SSW,194,2.0,5.0,85,0.00,,,0.00,0.000000,,2013-01-25 03:02:00,
2013-01-24 21:12:00,59.0,54.0,-100.00,SSW,194,2.0,5.0,85,0.00,,,0.00,0.000000,,2013-01-25 03:12:00,
2013-01-24 21:22:00,59.0,54.0,-100.00,SSW,194,2.0,5.0,85,0.00,,,0.00,0.000000,,2013-01-25 03:22:00,
2013-01-24 21:52:00,58.0,54.0,-100.00,SSW,201,3.0,7.0,85,0.00,,,0.00,0.000000,,2013-01-25 03:52:00,
2013-01-24 22:02:00,58.0,54.0,-100.00,SSW,201,3.0,7.0,85,0.00,,,0.00,0.000000,,2013-01-25 04:02:00,
2013-01-24 22:12:00,58.0,54.0,-100.00,SSW,201,3.0,7.0,85,0.00,,,0.00,0.000000,,2013-01-25 04:12:00,
2013-01-24 22:22:00,58.0,54.0,-100.00,SSW,201,3.0,7.0,85,0.00,,,0.00,0.000000,,2013-01-25 04:22:00,
2013-01-24 22:52:00,55.0,53.0,-100.00,ESE,114,0.0,6.0,93,0.00,,,0.00,0.000000,,2013-01-25 04:52:00,
2013-01-24 23:03:00,55.0,53.0,-100.00,ESE,114,0.0,6.0,93,0.00,,,0.00,0.000000,,2013-01-25 05:03:00,
2013-01-24 23:12:00,55.0,53.0,-100.00,ESE,114,0.0,6.0,93,0.00,,,0.00,0.000000,,2013-01-25 05:12:00,
2013-01-24 23:22:00,55.0,53.0,-100.00,ESE,114,0.0,6.0,93,0.00,,,0.00,0.000000,,2013-01-25 05:22:00,
2013-01-24 23:52:00,51.0,50.0,-100.00,SW,232,0.0,0.0,96,0.00,,,0.00,0.000000,,2013-01-25 05:52:00,